sensor_id;sensor_type;location;lat;lon;timestamp;temperature;humidity
318;DHT22;146;53.448;10.228;2022-12-05T00:00:22;5.70;1.00
318;DHT22;146;53.448;10.228;2022-12-05T00:02:49;5.70;1.00
318;DHT22;146;53.448;10.228;2022-12-05T00:05:17;5.70;1.00
318;DHT22;146;53.448;10.228;2022-12-05T00:07:44;5.60;1.00
318;DHT22;146;53.448;10.228;2022-12-05T00:10:11;5.60;1.00
318;DHT22;146;53.448;10.228;2022-12-05T00:12:38;5.60;1.00
318;DHT22;146;53.448;10.228;2022-12-05T00:15:06;5.50;1.00
318;DHT22;146;53.448;10.228;2022-12-05T00:17:37;5.50;1.00
318;DHT22;146;53.448;10.228;2022-12-05T00:20:06;5.30;1.00
318;DHT22;146;53.448;10.228;2022-12-05T00:22:35;5.30;1.00
318;DHT22;146;53.448;10.228;2022-12-05T00:25:03;5.30;1.00
318;DHT22;146;53.448;10.228;2022-12-05T00:27:31;5.40;1.00
318;DHT22;146;53.448;10.228;2022-12-05T00:29:57;5.30;1.00
318;DHT22;146;53.448;10.228;2022-12-05T00:32:25;5.30;1.00
318;DHT22;146;53.448;10.228;2022-12-05T00:34:53;5.30;1.00
318;DHT22;146;53.448;10.228;2022-12-05T00:37:20;5.20;1.00
318;DHT22;146;53.448;10.228;2022-12-05T00:39:48;5.20;1.00
318;DHT22;146;53.448;10.228;2022-12-05T00:42:15;5.20;1.00
318;DHT22;146;53.448;10.228;2022-12-05T00:44:42;5.20;1.00
318;DHT22;146;53.448;10.228;2022-12-05T00:47:09;5.20;1.00
318;DHT22;146;53.448;10.228;2022-12-05T00:49:36;5.30;1.00
318;DHT22;146;53.448;10.228;2022-12-05T00:52:03;5.30;1.00
318;DHT22;146;53.448;10.228;2022-12-05T00:54:30;5.40;1.00
318;DHT22;146;53.448;10.228;2022-12-05T00:56:58;5.40;1.00
318;DHT22;146;53.448;10.228;2022-12-05T00:59:25;5.30;1.00
318;DHT22;146;53.448;10.228;2022-12-05T01:01:52;5.30;1.00
318;DHT22;146;53.448;10.228;2022-12-05T01:04:20;5.30;1.00
318;DHT22;146;53.448;10.228;2022-12-05T01:06:47;5.30;1.00
318;DHT22;146;53.448;10.228;2022-12-05T01:09:18;5.40;1.00
318;DHT22;146;53.448;10.228;2022-12-05T01:11:46;5.40;1.00
318;DHT22;146;53.448;10.228;2022-12-05T01:14:15;5.30;1.00
318;DHT22;146;53.448;10.228;2022-12-05T01:16:45;5.30;1.00
318;DHT22;146;53.448;10.228;2022-12-05T01:19:14;5.30;1.00
318;DHT22;146;53.448;10.228;2022-12-05T01:21:41;5.20;1.00
318;DHT22;146;53.448;10.228;2022-12-05T01:24:09;5.20;1.00
318;DHT22;146;53.448;10.228;2022-12-05T01:26:37;5.20;1.00
318;DHT22;146;53.448;10.228;2022-12-05T01:29:05;5.20;1.00
318;DHT22;146;53.448;10.228;2022-12-05T01:31:36;5.20;1.00
318;DHT22;146;53.448;10.228;2022-12-05T01:34:05;5.20;1.00
318;DHT22;146;53.448;10.228;2022-12-05T01:36:32;5.10;1.00
318;DHT22;146;53.448;10.228;2022-12-05T01:38:59;5.10;1.00
318;DHT22;146;53.448;10.228;2022-12-05T01:41:28;5.20;1.00
318;DHT22;146;53.448;10.228;2022-12-05T01:43:59;5.30;1.00
318;DHT22;146;53.448;10.228;2022-12-05T01:46:28;5.30;1.00
318;DHT22;146;53.448;10.228;2022-12-05T01:49:01;5.30;1.00
318;DHT22;146;53.448;10.228;2022-12-05T01:51:29;5.30;1.00
318;DHT22;146;53.448;10.228;2022-12-05T01:53:57;5.40;1.00
318;DHT22;146;53.448;10.228;2022-12-05T01:56:25;5.40;1.00
318;DHT22;146;53.448;10.228;2022-12-05T01:58:52;5.50;1.00
318;DHT22;146;53.448;10.228;2022-12-05T02:01:21;5.50;1.00
318;DHT22;146;53.448;10.228;2022-12-05T02:03:50;5.50;1.00
318;DHT22;146;53.448;10.228;2022-12-05T02:06:19;5.50;1.00
318;DHT22;146;53.448;10.228;2022-12-05T02:08:47;5.50;1.00
318;DHT22;146;53.448;10.228;2022-12-05T02:11:15;5.60;1.00
318;DHT22;146;53.448;10.228;2022-12-05T02:14:11;5.50;1.00
318;DHT22;146;53.448;10.228;2022-12-05T02:16:47;5.60;1.00
318;DHT22;146;53.448;10.228;2022-12-05T02:19:39;5.70;1.00
318;DHT22;146;53.448;10.228;2022-12-05T02:22:36;5.80;1.00
318;DHT22;146;53.448;10.228;2022-12-05T02:25:26;5.60;1.00
318;DHT22;146;53.448;10.228;2022-12-05T02:28:21;5.70;1.00
318;DHT22;146;53.448;10.228;2022-12-05T02:30:57;5.70;1.00
318;DHT22;146;53.448;10.228;2022-12-05T02:33:34;5.70;1.00
318;DHT22;146;53.448;10.228;2022-12-05T02:36:06;5.60;1.00
318;DHT22;146;53.448;10.228;2022-12-05T02:38:37;5.60;1.00
318;DHT22;146;53.448;10.228;2022-12-05T02:41:11;5.70;1.00
318;DHT22;146;53.448;10.228;2022-12-05T02:43:46;5.60;1.00
318;DHT22;146;53.448;10.228;2022-12-05T02:46:21;5.60;1.00
318;DHT22;146;53.448;10.228;2022-12-05T02:48:52;5.80;1.00
318;DHT22;146;53.448;10.228;2022-12-05T02:51:22;5.70;1.00
318;DHT22;146;53.448;10.228;2022-12-05T02:53:50;5.70;1.00
318;DHT22;146;53.448;10.228;2022-12-05T02:56:18;5.80;1.00
318;DHT22;146;53.448;10.228;2022-12-05T02:58:50;5.90;1.00
318;DHT22;146;53.448;10.228;2022-12-05T03:01:22;5.80;1.00
318;DHT22;146;53.448;10.228;2022-12-05T03:03:50;5.80;1.00
318;DHT22;146;53.448;10.228;2022-12-05T03:06:20;5.80;1.00
318;DHT22;146;53.448;10.228;2022-12-05T03:08:52;5.80;1.00
318;DHT22;146;53.448;10.228;2022-12-05T03:11:21;5.80;1.00
318;DHT22;146;53.448;10.228;2022-12-05T03:13:51;5.80;1.00
318;DHT22;146;53.448;10.228;2022-12-05T03:16:24;5.80;1.00
318;DHT22;146;53.448;10.228;2022-12-05T03:18:55;5.80;1.00
318;DHT22;146;53.448;10.228;2022-12-05T03:21:30;5.90;1.00
318;DHT22;146;53.448;10.228;2022-12-05T03:24:02;6.00;1.00
318;DHT22;146;53.448;10.228;2022-12-05T03:26:39;6.10;1.00
318;DHT22;146;53.448;10.228;2022-12-05T03:29:19;6.10;1.00
318;DHT22;146;53.448;10.228;2022-12-05T03:31:56;6.10;1.00
318;DHT22;146;53.448;10.228;2022-12-05T03:34:31;6.10;1.00
318;DHT22;146;53.448;10.228;2022-12-05T03:37:03;6.20;1.00
318;DHT22;146;53.448;10.228;2022-12-05T03:39:33;6.10;1.00
318;DHT22;146;53.448;10.228;2022-12-05T03:42:09;6.10;1.00
318;DHT22;146;53.448;10.228;2022-12-05T03:44:43;6.10;1.00
318;DHT22;146;53.448;10.228;2022-12-05T03:47:16;6.10;1.00
318;DHT22;146;53.448;10.228;2022-12-05T03:49:49;6.10;1.00
318;DHT22;146;53.448;10.228;2022-12-05T03:52:21;6.10;1.00
318;DHT22;146;53.448;10.228;2022-12-05T03:54:52;6.10;1.00
318;DHT22;146;53.448;10.228;2022-12-05T03:57:23;6.10;1.00
318;DHT22;146;53.448;10.228;2022-12-05T03:59:54;6.10;1.00
318;DHT22;146;53.448;10.228;2022-12-05T04:02:27;6.00;1.00
318;DHT22;146;53.448;10.228;2022-12-05T04:05:01;6.10;1.00
318;DHT22;146;53.448;10.228;2022-12-05T04:07:31;6.00;1.00
318;DHT22;146;53.448;10.228;2022-12-05T04:10:04;6.00;1.00
318;DHT22;146;53.448;10.228;2022-12-05T04:12:33;5.90;1.00
318;DHT22;146;53.448;10.228;2022-12-05T04:15:04;6.00;1.00
318;DHT22;146;53.448;10.228;2022-12-05T04:17:39;6.00;1.00
318;DHT22;146;53.448;10.228;2022-12-05T04:20:11;6.00;1.00
318;DHT22;146;53.448;10.228;2022-12-05T04:22:56;6.00;1.00
318;DHT22;146;53.448;10.228;2022-12-05T04:25:24;6.10;1.00
318;DHT22;146;53.448;10.228;2022-12-05T04:28:19;6.10;1.00
318;DHT22;146;53.448;10.228;2022-12-05T04:30:52;6.00;1.00
318;DHT22;146;53.448;10.228;2022-12-05T04:33:27;6.00;1.00
318;DHT22;146;53.448;10.228;2022-12-05T04:36:00;6.00;1.00
318;DHT22;146;53.448;10.228;2022-12-05T04:38:33;6.00;1.00
318;DHT22;146;53.448;10.228;2022-12-05T04:41:05;6.00;1.00
318;DHT22;146;53.448;10.228;2022-12-05T04:43:35;5.80;1.00
318;DHT22;146;53.448;10.228;2022-12-05T04:46:06;5.80;1.00
318;DHT22;146;53.448;10.228;2022-12-05T04:48:37;5.70;1.00
318;DHT22;146;53.448;10.228;2022-12-05T04:51:06;5.80;1.00
318;DHT22;146;53.448;10.228;2022-12-05T04:53:35;5.70;1.00
318;DHT22;146;53.448;10.228;2022-12-05T04:56:03;5.60;1.00
318;DHT22;146;53.448;10.228;2022-12-05T04:58:31;5.40;1.00
318;DHT22;146;53.448;10.228;2022-12-05T05:01:02;5.40;1.00
318;DHT22;146;53.448;10.228;2022-12-05T05:03:37;5.50;1.00
318;DHT22;146;53.448;10.228;2022-12-05T05:06:05;5.60;1.00
318;DHT22;146;53.448;10.228;2022-12-05T05:08:33;5.60;1.00
318;DHT22;146;53.448;10.228;2022-12-05T05:11:13;5.60;1.00
318;DHT22;146;53.448;10.228;2022-12-05T05:13:40;5.60;1.00
318;DHT22;146;53.448;10.228;2022-12-05T05:16:11;5.70;1.00
318;DHT22;146;53.448;10.228;2022-12-05T05:18:40;5.70;1.00
318;DHT22;146;53.448;10.228;2022-12-05T05:21:14;5.80;1.00
318;DHT22;146;53.448;10.228;2022-12-05T05:23:41;5.80;1.00
318;DHT22;146;53.448;10.228;2022-12-05T05:26:07;5.80;1.00
318;DHT22;146;53.448;10.228;2022-12-05T05:28:35;5.70;1.00
318;DHT22;146;53.448;10.228;2022-12-05T05:31:03;5.70;1.00
318;DHT22;146;53.448;10.228;2022-12-05T05:33:30;5.70;1.00
318;DHT22;146;53.448;10.228;2022-12-05T05:36:01;5.70;1.00
318;DHT22;146;53.448;10.228;2022-12-05T05:38:29;5.70;1.00
318;DHT22;146;53.448;10.228;2022-12-05T05:40:55;5.70;1.00
318;DHT22;146;53.448;10.228;2022-12-05T05:43:22;5.70;1.00
318;DHT22;146;53.448;10.228;2022-12-05T05:45:49;5.70;1.00
318;DHT22;146;53.448;10.228;2022-12-05T05:48:16;5.70;1.00
318;DHT22;146;53.448;10.228;2022-12-05T05:50:43;5.60;1.00
318;DHT22;146;53.448;10.228;2022-12-05T05:53:11;5.50;1.00
318;DHT22;146;53.448;10.228;2022-12-05T05:55:39;5.50;1.00
318;DHT22;146;53.448;10.228;2022-12-05T05:58:06;5.50;1.00
318;DHT22;146;53.448;10.228;2022-12-05T06:00:33;5.50;1.00
318;DHT22;146;53.448;10.228;2022-12-05T06:03:00;5.50;1.00
318;DHT22;146;53.448;10.228;2022-12-05T06:05:27;5.60;1.00
318;DHT22;146;53.448;10.228;2022-12-05T06:07:54;5.60;1.00
318;DHT22;146;53.448;10.228;2022-12-05T06:10:22;5.50;1.00
318;DHT22;146;53.448;10.228;2022-12-05T06:12:49;5.60;1.00
318;DHT22;146;53.448;10.228;2022-12-05T06:15:16;5.60;1.00
318;DHT22;146;53.448;10.228;2022-12-05T06:17:43;5.60;1.00
318;DHT22;146;53.448;10.228;2022-12-05T06:20:10;5.70;1.00
318;DHT22;146;53.448;10.228;2022-12-05T06:22:37;5.60;1.00
318;DHT22;146;53.448;10.228;2022-12-05T06:25:05;5.60;1.00
318;DHT22;146;53.448;10.228;2022-12-05T06:27:33;5.60;1.00
318;DHT22;146;53.448;10.228;2022-12-05T06:30:01;5.60;1.00
318;DHT22;146;53.448;10.228;2022-12-05T06:32:28;5.50;1.00
318;DHT22;146;53.448;10.228;2022-12-05T06:34:55;5.50;1.00
318;DHT22;146;53.448;10.228;2022-12-05T06:37:22;5.50;1.00
318;DHT22;146;53.448;10.228;2022-12-05T06:39:50;5.50;1.00
318;DHT22;146;53.448;10.228;2022-12-05T06:42:16;5.50;1.00
318;DHT22;146;53.448;10.228;2022-12-05T06:44:45;5.50;1.00
318;DHT22;146;53.448;10.228;2022-12-05T06:47:11;5.50;1.00
318;DHT22;146;53.448;10.228;2022-12-05T06:49:38;5.50;1.00
318;DHT22;146;53.448;10.228;2022-12-05T06:52:05;5.50;1.00
318;DHT22;146;53.448;10.228;2022-12-05T06:54:32;5.50;1.00
318;DHT22;146;53.448;10.228;2022-12-05T06:56:59;5.50;1.00
318;DHT22;146;53.448;10.228;2022-12-05T06:59:26;5.50;1.00
318;DHT22;146;53.448;10.228;2022-12-05T07:01:54;5.50;1.00
318;DHT22;146;53.448;10.228;2022-12-05T07:04:21;5.50;1.00
318;DHT22;146;53.448;10.228;2022-12-05T07:06:49;5.60;1.00
318;DHT22;146;53.448;10.228;2022-12-05T07:09:18;5.60;1.00
318;DHT22;146;53.448;10.228;2022-12-05T07:11:46;5.60;1.00
318;DHT22;146;53.448;10.228;2022-12-05T07:14:13;5.60;1.00
318;DHT22;146;53.448;10.228;2022-12-05T07:16:39;5.50;1.00
318;DHT22;146;53.448;10.228;2022-12-05T07:19:08;5.40;1.00
318;DHT22;146;53.448;10.228;2022-12-05T07:21:35;5.30;1.00
318;DHT22;146;53.448;10.228;2022-12-05T07:24:02;5.30;1.00
318;DHT22;146;53.448;10.228;2022-12-05T07:26:29;5.30;1.00
318;DHT22;146;53.448;10.228;2022-12-05T07:28:56;5.20;1.00
318;DHT22;146;53.448;10.228;2022-12-05T07:31:23;5.20;1.00
318;DHT22;146;53.448;10.228;2022-12-05T07:33:51;5.10;1.00
318;DHT22;146;53.448;10.228;2022-12-05T07:36:20;5.10;1.00
318;DHT22;146;53.448;10.228;2022-12-05T07:38:48;5.00;1.00
318;DHT22;146;53.448;10.228;2022-12-05T07:41:21;5.10;1.00
318;DHT22;146;53.448;10.228;2022-12-05T07:43:49;5.10;1.00
318;DHT22;146;53.448;10.228;2022-12-05T07:46:17;5.00;1.00
318;DHT22;146;53.448;10.228;2022-12-05T07:49:07;5.00;1.00
318;DHT22;146;53.448;10.228;2022-12-05T07:51:36;5.00;1.00
318;DHT22;146;53.448;10.228;2022-12-05T07:54:03;4.90;1.00
318;DHT22;146;53.448;10.228;2022-12-05T07:56:31;4.90;1.00
318;DHT22;146;53.448;10.228;2022-12-05T07:58:58;4.90;1.00
318;DHT22;146;53.448;10.228;2022-12-05T08:01:26;4.90;1.00
318;DHT22;146;53.448;10.228;2022-12-05T08:03:55;4.90;1.00
318;DHT22;146;53.448;10.228;2022-12-05T08:06:23;4.90;1.00
318;DHT22;146;53.448;10.228;2022-12-05T08:08:52;4.80;1.00
318;DHT22;146;53.448;10.228;2022-12-05T08:11:20;4.70;1.00
318;DHT22;146;53.448;10.228;2022-12-05T08:13:48;4.70;1.00
318;DHT22;146;53.448;10.228;2022-12-05T08:16:16;4.70;1.00
318;DHT22;146;53.448;10.228;2022-12-05T08:18:44;4.70;1.00
318;DHT22;146;53.448;10.228;2022-12-05T08:21:13;4.70;1.00
318;DHT22;146;53.448;10.228;2022-12-05T08:23:41;4.70;1.00
318;DHT22;146;53.448;10.228;2022-12-05T08:26:12;4.70;1.00
318;DHT22;146;53.448;10.228;2022-12-05T08:28:40;4.70;1.00
318;DHT22;146;53.448;10.228;2022-12-05T08:31:09;4.70;1.00
318;DHT22;146;53.448;10.228;2022-12-05T08:33:37;4.80;1.00
318;DHT22;146;53.448;10.228;2022-12-05T08:36:07;4.70;1.00
318;DHT22;146;53.448;10.228;2022-12-05T08:38:35;4.80;1.00
318;DHT22;146;53.448;10.228;2022-12-05T08:41:03;4.70;1.00
318;DHT22;146;53.448;10.228;2022-12-05T08:43:32;4.80;1.00
318;DHT22;146;53.448;10.228;2022-12-05T08:45:59;4.70;1.00
318;DHT22;146;53.448;10.228;2022-12-05T08:48:28;4.70;1.00
318;DHT22;146;53.448;10.228;2022-12-05T08:50:55;4.70;1.00
318;DHT22;146;53.448;10.228;2022-12-05T08:53:22;4.70;1.00
318;DHT22;146;53.448;10.228;2022-12-05T08:55:49;4.70;1.00
318;DHT22;146;53.448;10.228;2022-12-05T08:58:16;4.70;1.00
318;DHT22;146;53.448;10.228;2022-12-05T09:00:44;4.70;1.00
318;DHT22;146;53.448;10.228;2022-12-05T09:03:11;4.70;1.00
318;DHT22;146;53.448;10.228;2022-12-05T09:05:38;4.70;1.00
318;DHT22;146;53.448;10.228;2022-12-05T09:08:05;4.80;1.00
318;DHT22;146;53.448;10.228;2022-12-05T09:10:32;4.80;1.00
318;DHT22;146;53.448;10.228;2022-12-05T09:12:59;4.80;1.00
318;DHT22;146;53.448;10.228;2022-12-05T09:15:26;4.80;1.00
318;DHT22;146;53.448;10.228;2022-12-05T09:17:54;4.80;1.00
318;DHT22;146;53.448;10.228;2022-12-05T09:20:21;4.80;1.00
318;DHT22;146;53.448;10.228;2022-12-05T09:22:48;4.80;1.00
318;DHT22;146;53.448;10.228;2022-12-05T09:25:15;4.80;1.00
318;DHT22;146;53.448;10.228;2022-12-05T09:27:41;4.80;1.00
318;DHT22;146;53.448;10.228;2022-12-05T09:30:09;4.80;1.00
318;DHT22;146;53.448;10.228;2022-12-05T09:32:36;4.80;1.00
318;DHT22;146;53.448;10.228;2022-12-05T09:35:05;4.80;1.00
318;DHT22;146;53.448;10.228;2022-12-05T09:37:31;4.80;1.00
318;DHT22;146;53.448;10.228;2022-12-05T09:39:58;4.80;1.00
318;DHT22;146;53.448;10.228;2022-12-05T09:42:37;4.80;1.00
318;DHT22;146;53.448;10.228;2022-12-05T09:45:13;4.90;1.00
318;DHT22;146;53.448;10.228;2022-12-05T09:47:47;4.90;1.00
318;DHT22;146;53.448;10.228;2022-12-05T09:50:20;4.90;1.00
318;DHT22;146;53.448;10.228;2022-12-05T09:53:00;4.90;1.00
318;DHT22;146;53.448;10.228;2022-12-05T09:55:34;4.90;1.00
318;DHT22;146;53.448;10.228;2022-12-05T09:58:04;5.00;1.00
318;DHT22;146;53.448;10.228;2022-12-05T10:00:38;5.00;1.00
318;DHT22;146;53.448;10.228;2022-12-05T10:03:11;5.00;1.00
318;DHT22;146;53.448;10.228;2022-12-05T10:05:51;5.00;1.00
318;DHT22;146;53.448;10.228;2022-12-05T10:08:25;5.00;1.00
318;DHT22;146;53.448;10.228;2022-12-05T10:10:59;5.00;1.00
318;DHT22;146;53.448;10.228;2022-12-05T10:13:43;5.00;1.00
318;DHT22;146;53.448;10.228;2022-12-05T10:16:15;5.10;1.00
318;DHT22;146;53.448;10.228;2022-12-05T10:18:45;5.10;1.00
318;DHT22;146;53.448;10.228;2022-12-05T10:21:18;5.10;1.00
318;DHT22;146;53.448;10.228;2022-12-05T10:23:55;5.10;1.00
318;DHT22;146;53.448;10.228;2022-12-05T10:26:26;5.10;1.00
318;DHT22;146;53.448;10.228;2022-12-05T10:28:57;5.20;1.00
318;DHT22;146;53.448;10.228;2022-12-05T10:31:31;5.20;1.00
318;DHT22;146;53.448;10.228;2022-12-05T10:34:03;5.20;1.00
318;DHT22;146;53.448;10.228;2022-12-05T10:36:33;5.30;1.00
318;DHT22;146;53.448;10.228;2022-12-05T10:39:00;5.30;1.00
318;DHT22;146;53.448;10.228;2022-12-05T10:41:27;5.30;1.00
318;DHT22;146;53.448;10.228;2022-12-05T10:43:55;5.30;1.00
318;DHT22;146;53.448;10.228;2022-12-05T10:46:24;5.20;1.00
318;DHT22;146;53.448;10.228;2022-12-05T10:48:51;5.30;1.00
318;DHT22;146;53.448;10.228;2022-12-05T10:51:27;5.30;1.00
318;DHT22;146;53.448;10.228;2022-12-05T10:53:55;5.30;1.00
318;DHT22;146;53.448;10.228;2022-12-05T10:56:39;5.30;1.00
318;DHT22;146;53.448;10.228;2022-12-05T10:59:08;5.30;1.00
318;DHT22;146;53.448;10.228;2022-12-05T11:01:36;5.30;1.00
318;DHT22;146;53.448;10.228;2022-12-05T11:04:09;5.30;1.00
318;DHT22;146;53.448;10.228;2022-12-05T11:06:58;5.30;1.00
318;DHT22;146;53.448;10.228;2022-12-05T11:09:29;5.30;1.00
318;DHT22;146;53.448;10.228;2022-12-05T11:15:43;5.20;1.00
318;DHT22;146;53.448;10.228;2022-12-05T11:18:32;5.20;1.00
318;DHT22;146;53.448;10.228;2022-12-05T11:21:10;5.20;1.00
318;DHT22;146;53.448;10.228;2022-12-05T11:23:38;5.20;1.00
318;DHT22;146;53.448;10.228;2022-12-05T11:26:16;5.20;1.00
318;DHT22;146;53.448;10.228;2022-12-05T11:28:44;5.20;1.00
318;DHT22;146;53.448;10.228;2022-12-05T11:31:27;5.20;1.00
318;DHT22;146;53.448;10.228;2022-12-05T11:34:08;5.20;1.00
318;DHT22;146;53.448;10.228;2022-12-05T11:36:40;5.20;1.00
318;DHT22;146;53.448;10.228;2022-12-05T11:39:10;5.20;1.00
318;DHT22;146;53.448;10.228;2022-12-05T11:41:47;5.20;1.00
318;DHT22;146;53.448;10.228;2022-12-05T11:44:27;5.30;1.00
318;DHT22;146;53.448;10.228;2022-12-05T11:47:09;5.20;1.00
318;DHT22;146;53.448;10.228;2022-12-05T11:52:36;5.30;1.00
318;DHT22;146;53.448;10.228;2022-12-05T11:55:13;5.30;1.00
318;DHT22;146;53.448;10.228;2022-12-05T11:58:04;5.30;1.00
318;DHT22;146;53.448;10.228;2022-12-05T12:00:38;5.30;1.00
318;DHT22;146;53.448;10.228;2022-12-05T12:03:36;5.40;1.00
318;DHT22;146;53.448;10.228;2022-12-05T12:06:27;5.30;1.00
318;DHT22;146;53.448;10.228;2022-12-05T12:09:13;5.30;1.00
318;DHT22;146;53.448;10.228;2022-12-05T12:11:47;5.40;1.00
318;DHT22;146;53.448;10.228;2022-12-05T12:14:24;5.40;1.00
318;DHT22;146;53.448;10.228;2022-12-05T12:17:02;5.50;1.00
318;DHT22;146;53.448;10.228;2022-12-05T12:19:41;5.50;1.00
318;DHT22;146;53.448;10.228;2022-12-05T12:25:12;5.50;1.00
318;DHT22;146;53.448;10.228;2022-12-05T12:27:51;5.50;1.00
318;DHT22;146;53.448;10.228;2022-12-05T12:30:27;5.50;1.00
318;DHT22;146;53.448;10.228;2022-12-05T12:33:04;5.50;1.00
318;DHT22;146;53.448;10.228;2022-12-05T12:35:39;5.50;1.00
318;DHT22;146;53.448;10.228;2022-12-05T12:38:32;5.50;1.00
318;DHT22;146;53.448;10.228;2022-12-05T12:41:09;5.50;1.00
318;DHT22;146;53.448;10.228;2022-12-05T12:43:45;5.50;1.00
318;DHT22;146;53.448;10.228;2022-12-05T12:46:21;5.50;1.00
318;DHT22;146;53.448;10.228;2022-12-05T12:49:04;5.50;1.00
318;DHT22;146;53.448;10.228;2022-12-05T12:51:32;5.50;1.00
318;DHT22;146;53.448;10.228;2022-12-05T12:54:11;5.50;1.00
318;DHT22;146;53.448;10.228;2022-12-05T12:56:51;5.50;1.00
318;DHT22;146;53.448;10.228;2022-12-05T12:59:40;5.50;1.00
318;DHT22;146;53.448;10.228;2022-12-05T13:02:17;5.50;1.00
318;DHT22;146;53.448;10.228;2022-12-05T13:04:50;5.50;1.00
318;DHT22;146;53.448;10.228;2022-12-05T13:07:22;5.30;1.00
318;DHT22;146;53.448;10.228;2022-12-05T13:09:56;5.10;1.00
318;DHT22;146;53.448;10.228;2022-12-05T13:12:27;5.10;1.00
318;DHT22;146;53.448;10.228;2022-12-05T13:14:58;5.00;1.00
318;DHT22;146;53.448;10.228;2022-12-05T13:17:28;4.80;1.00
318;DHT22;146;53.448;10.228;2022-12-05T13:19:57;4.80;1.00
318;DHT22;146;53.448;10.228;2022-12-05T13:22:26;4.90;1.00
318;DHT22;146;53.448;10.228;2022-12-05T13:24:54;4.80;1.00
318;DHT22;146;53.448;10.228;2022-12-05T13:27:23;4.60;1.00
318;DHT22;146;53.448;10.228;2022-12-05T13:29:53;4.70;1.00
318;DHT22;146;53.448;10.228;2022-12-05T13:32:28;4.70;1.00
318;DHT22;146;53.448;10.228;2022-12-05T13:34:57;4.80;1.00
318;DHT22;146;53.448;10.228;2022-12-05T13:37:26;4.80;1.00
318;DHT22;146;53.448;10.228;2022-12-05T13:40:22;4.90;1.00
318;DHT22;146;53.448;10.228;2022-12-05T13:43:07;4.90;1.00
318;DHT22;146;53.448;10.228;2022-12-05T13:45:35;5.00;1.00
318;DHT22;146;53.448;10.228;2022-12-05T13:48:12;5.00;1.00
318;DHT22;146;53.448;10.228;2022-12-05T13:50:48;5.10;1.00
318;DHT22;146;53.448;10.228;2022-12-05T13:53:34;5.10;1.00
318;DHT22;146;53.448;10.228;2022-12-05T13:56:05;5.10;1.00
318;DHT22;146;53.448;10.228;2022-12-05T13:58:45;5.10;1.00
318;DHT22;146;53.448;10.228;2022-12-05T14:01:42;5.00;1.00
318;DHT22;146;53.448;10.228;2022-12-05T14:07:42;5.00;1.00
318;DHT22;146;53.448;10.228;2022-12-05T14:10:11;4.90;1.00
318;DHT22;146;53.448;10.228;2022-12-05T14:12:50;4.90;1.00
318;DHT22;146;53.448;10.228;2022-12-05T14:15:26;4.80;1.00
318;DHT22;146;53.448;10.228;2022-12-05T14:18:02;4.90;1.00
318;DHT22;146;53.448;10.228;2022-12-05T14:20:47;4.80;1.00
318;DHT22;146;53.448;10.228;2022-12-05T14:23:30;4.60;1.00
318;DHT22;146;53.448;10.228;2022-12-05T14:26:11;4.70;1.00
318;DHT22;146;53.448;10.228;2022-12-05T14:28:55;4.60;1.00
318;DHT22;146;53.448;10.228;2022-12-05T14:31:41;4.70;1.00
318;DHT22;146;53.448;10.228;2022-12-05T14:34:17;4.70;1.00
318;DHT22;146;53.448;10.228;2022-12-05T14:36:57;4.70;1.00
318;DHT22;146;53.448;10.228;2022-12-05T14:39:40;4.80;1.00
318;DHT22;146;53.448;10.228;2022-12-05T14:42:33;4.70;1.00
318;DHT22;146;53.448;10.228;2022-12-05T14:45:02;4.70;1.00
318;DHT22;146;53.448;10.228;2022-12-05T14:47:49;4.70;1.00
318;DHT22;146;53.448;10.228;2022-12-05T14:50:41;4.70;1.00
318;DHT22;146;53.448;10.228;2022-12-05T14:53:31;4.70;1.00
318;DHT22;146;53.448;10.228;2022-12-05T14:56:10;4.60;1.00
318;DHT22;146;53.448;10.228;2022-12-05T14:58:42;4.50;1.00
318;DHT22;146;53.448;10.228;2022-12-05T15:01:14;4.50;1.00
318;DHT22;146;53.448;10.228;2022-12-05T15:04:08;4.50;1.00
318;DHT22;146;53.448;10.228;2022-12-05T15:06:43;4.50;1.00
318;DHT22;146;53.448;10.228;2022-12-05T15:09:34;4.50;1.00
318;DHT22;146;53.448;10.228;2022-12-05T15:12:10;4.50;1.00
318;DHT22;146;53.448;10.228;2022-12-05T15:14:46;4.50;1.00
318;DHT22;146;53.448;10.228;2022-12-05T15:17:21;4.40;1.00
318;DHT22;146;53.448;10.228;2022-12-05T15:19:55;4.50;1.00
318;DHT22;146;53.448;10.228;2022-12-05T15:22:25;4.40;1.00
318;DHT22;146;53.448;10.228;2022-12-05T15:24:53;4.40;1.00
318;DHT22;146;53.448;10.228;2022-12-05T15:27:21;4.40;1.00
318;DHT22;146;53.448;10.228;2022-12-05T15:29:52;4.40;1.00
318;DHT22;146;53.448;10.228;2022-12-05T15:32:24;4.40;1.00
318;DHT22;146;53.448;10.228;2022-12-05T15:34:55;4.40;1.00
318;DHT22;146;53.448;10.228;2022-12-05T15:37:24;4.40;1.00
318;DHT22;146;53.448;10.228;2022-12-05T15:39:54;4.40;1.00
318;DHT22;146;53.448;10.228;2022-12-05T15:42:25;4.40;1.00
318;DHT22;146;53.448;10.228;2022-12-05T15:44:52;4.40;1.00
318;DHT22;146;53.448;10.228;2022-12-05T15:47:21;4.40;1.00
318;DHT22;146;53.448;10.228;2022-12-05T15:49:49;4.40;1.00
318;DHT22;146;53.448;10.228;2022-12-05T15:52:23;4.30;1.00
318;DHT22;146;53.448;10.228;2022-12-05T15:54:54;4.40;1.00
318;DHT22;146;53.448;10.228;2022-12-05T15:57:27;4.40;1.00
318;DHT22;146;53.448;10.228;2022-12-05T15:59:59;4.30;1.00
318;DHT22;146;53.448;10.228;2022-12-05T16:02:38;4.40;1.00
318;DHT22;146;53.448;10.228;2022-12-05T16:05:18;4.30;1.00
318;DHT22;146;53.448;10.228;2022-12-05T16:07:47;4.30;1.00
318;DHT22;146;53.448;10.228;2022-12-05T16:10:15;4.30;1.00
318;DHT22;146;53.448;10.228;2022-12-05T16:12:43;4.30;1.00
318;DHT22;146;53.448;10.228;2022-12-05T16:15:12;4.30;1.00
318;DHT22;146;53.448;10.228;2022-12-05T16:17:42;4.30;1.00
318;DHT22;146;53.448;10.228;2022-12-05T16:20:21;4.30;1.00
318;DHT22;146;53.448;10.228;2022-12-05T16:22:49;4.20;1.00
318;DHT22;146;53.448;10.228;2022-12-05T16:25:21;4.30;1.00
318;DHT22;146;53.448;10.228;2022-12-05T16:27:57;4.30;1.00
318;DHT22;146;53.448;10.228;2022-12-05T16:30:26;4.30;1.00
318;DHT22;146;53.448;10.228;2022-12-05T16:33:02;4.30;1.00
318;DHT22;146;53.448;10.228;2022-12-05T16:35:37;4.30;1.00
318;DHT22;146;53.448;10.228;2022-12-05T16:38:12;4.30;1.00
318;DHT22;146;53.448;10.228;2022-12-05T16:40:49;4.30;1.00
318;DHT22;146;53.448;10.228;2022-12-05T16:43:23;4.20;1.00
318;DHT22;146;53.448;10.228;2022-12-05T16:45:52;4.20;1.00
318;DHT22;146;53.448;10.228;2022-12-05T16:48:22;4.20;1.00
318;DHT22;146;53.448;10.228;2022-12-05T16:50:50;4.20;1.00
318;DHT22;146;53.448;10.228;2022-12-05T16:53:26;4.20;1.00
318;DHT22;146;53.448;10.228;2022-12-05T16:55:54;4.20;1.00
318;DHT22;146;53.448;10.228;2022-12-05T16:58:24;4.30;1.00
318;DHT22;146;53.448;10.228;2022-12-05T17:00:58;4.30;1.00
318;DHT22;146;53.448;10.228;2022-12-05T17:03:25;4.30;1.00
318;DHT22;146;53.448;10.228;2022-12-05T17:05:53;4.30;1.00
318;DHT22;146;53.448;10.228;2022-12-05T17:08:20;4.30;1.00
318;DHT22;146;53.448;10.228;2022-12-05T17:10:47;4.30;1.00
318;DHT22;146;53.448;10.228;2022-12-05T17:13:14;4.20;1.00
318;DHT22;146;53.448;10.228;2022-12-05T17:15:44;4.30;1.00
318;DHT22;146;53.448;10.228;2022-12-05T17:18:12;4.20;1.00
318;DHT22;146;53.448;10.228;2022-12-05T17:20:42;4.20;1.00
318;DHT22;146;53.448;10.228;2022-12-05T17:23:11;4.30;1.00
318;DHT22;146;53.448;10.228;2022-12-05T17:25:41;4.20;1.00
318;DHT22;146;53.448;10.228;2022-12-05T17:28:08;4.20;1.00
318;DHT22;146;53.448;10.228;2022-12-05T17:30:36;4.20;1.00
318;DHT22;146;53.448;10.228;2022-12-05T17:33:08;4.20;1.00
318;DHT22;146;53.448;10.228;2022-12-05T17:35:36;4.20;1.00